Time;durP1;ratioP1;P1;durP2;ratioP2;P2;SDS_P1;SDS_P2;PMS_P1;PMS_P2;Temp;Humidity;BMP_temperature;BMP_pressure;BME280_temperature;BME280_humidity;BME280_pressure;Samples;Min_cycle;Max_cycle;Signal;HPM_P1;HPM_P2
2023/12/18 00:01:07;;;;;;;29.13;11.93;;;;;;;12.42;65.98;103291.34;5012739;28;20038;-46
2023/12/18 00:03:32;;;;;;;29.80;12.02;;;;;;;12.22;66.78;103293.06;5012775;28;20149;-47
2023/12/18 00:05:58;;;;;;;23.08;11.00;;;;;;;12.43;66.06;103294.03;5012259;28;20049;-46
2023/12/18 00:08:23;;;;;;;25.52;11.80;;;;;;;12.25;66.53;103293.22;5012555;28;20033;-45
2023/12/18 00:10:49;;;;;;;30.27;12.70;;;;;;;12.10;67.15;103280.34;5012805;28;20116;-45
2023/12/18 00:13:14;;;;;;;29.60;12.05;;;;;;;12.25;66.74;103284.47;5012175;28;20053;-46
2023/12/18 00:15:39;;;;;;;28.52;11.50;;;;;;;12.35;66.83;103284.94;5011076;28;20054;-46
2023/12/18 00:18:05;;;;;;;30.08;12.18;;;;;;;11.95;67.58;103284.88;5012048;28;20045;-47
2023/12/18 00:20:30;;;;;;;29.85;12.23;;;;;;;11.96;67.62;103280.50;5012979;28;20452;-45
2023/12/18 00:22:55;;;;;;;31.85;12.70;;;;;;;12.20;66.78;103277.28;5011952;28;20046;-45
2023/12/18 00:25:21;;;;;;;32.35;12.18;;;;;;;12.22;66.88;103274.75;5011704;28;20026;-47
2023/12/18 00:27:46;;;;;;;26.85;12.30;;;;;;;11.84;67.91;103278.22;5012280;28;20037;-46
2023/12/18 00:30:12;;;;;;;28.38;13.18;;;;;;;12.12;67.60;103269.94;5010734;28;20041;-46
2023/12/18 00:32:37;;;;;;;29.38;12.98;;;;;;;12.04;68.44;103271.31;5011299;28;20124;-45
2023/12/18 00:35:02;;;;;;;31.13;12.02;;;;;;;11.97;67.96;103277.97;5011351;28;20041;-45
2023/12/18 00:37:27;;;;;;;22.27;11.98;;;;;;;12.10;67.33;103269.88;5011770;28;20514;-47
2023/12/18 00:39:53;;;;;;;26.92;12.20;;;;;;;12.28;66.99;103258.44;5012265;28;20496;-44
2023/12/18 00:42:18;;;;;;;30.27;13.25;;;;;;;11.97;67.99;103254.44;5011098;28;20107;-47
2023/12/18 00:44:43;;;;;;;29.38;12.60;;;;;;;11.96;68.15;103254.38;5012005;28;20030;-46
2023/12/18 00:47:09;;;;;;;29.65;13.05;;;;;;;11.73;68.99;103266.34;5011301;28;20033;-47
2023/12/18 00:49:34;;;;;;;29.38;13.32;;;;;;;11.93;68.57;103269.94;5011995;28;20030;-48
2023/12/18 00:52:00;;;;;;;29.05;12.65;;;;;;;12.17;67.61;103268.44;5010700;28;20086;-44
2023/12/18 00:54:25;;;;;;;25.92;12.27;;;;;;;12.32;67.27;103270.84;5009886;28;20030;-44
2023/12/18 00:56:50;;;;;;;33.58;12.65;;;;;;;12.31;67.15;103262.09;5011888;28;20034;-44
2023/12/18 00:59:16;;;;;;;27.58;12.80;;;;;;;12.49;66.48;103262.91;5010705;28;20046;-45
2023/12/18 01:01:42;;;;;;;35.92;13.32;;;;;;;12.39;66.49;103255.47;5011103;28;20058;-43
2023/12/18 01:04:07;;;;;;;29.63;13.15;;;;;;;12.40;66.48;103256.34;5010784;28;20069;-44
2023/12/18 01:06:33;;;;;;;32.47;12.85;;;;;;;12.30;66.62;103256.78;5011528;28;20056;-50
2023/12/18 01:08:58;;;;;;;27.70;12.75;;;;;;;12.49;66.41;103251.53;5009808;28;20038;-45
2023/12/18 01:11:23;;;;;;;28.48;12.40;;;;;;;12.34;66.80;103243.91;5010815;28;20506;-46
2023/12/18 01:13:49;;;;;;;24.25;12.68;;;;;;;12.49;66.41;103241.09;5011114;28;20048;-49
2023/12/18 01:16:14;;;;;;;24.42;12.18;;;;;;;12.60;65.96;103251.19;5010866;28;20048;-47
2023/12/18 01:18:39;;;;;;;26.85;12.18;;;;;;;12.60;65.81;103248.56;5010795;28;20112;-49
2023/12/18 01:21:04;;;;;;;27.35;12.18;;;;;;;12.55;66.13;103246.56;5010218;28;20042;-45
2023/12/18 01:23:30;;;;;;;29.55;12.93;;;;;;;12.54;66.17;103250.91;5010901;28;20088;-44
2023/12/18 01:25:55;;;;;;;30.90;12.68;;;;;;;12.58;66.04;103242.34;4993098;28;20065;-50
2023/12/18 01:28:20;;;;;;;32.35;12.38;;;;;;;12.46;66.20;103247.06;5010072;28;20128;-45
2023/12/18 01:30:46;;;;;;;31.92;12.43;;;;;;;12.52;66.50;103246.44;5010637;28;20061;-47
2023/12/18 01:33:11;;;;;;;28.98;12.27;;;;;;;12.47;66.58;103240.09;5010148;28;20099;-44
2023/12/18 01:35:36;;;;;;;31.48;12.57;;;;;;;12.55;66.10;103241.34;5010532;28;20041;-48
2023/12/18 01:38:02;;;;;;;27.08;12.15;;;;;;;12.38;66.83;103242.34;5010350;28;20045;-49
2023/12/18 01:40:27;;;;;;;29.92;12.65;;;;;;;12.18;67.76;103231.91;5010997;28;20573;-47
2023/12/18 01:42:53;;;;;;;28.67;12.02;;;;;;;12.26;67.75;103237.44;5010240;28;20045;-46
2023/12/18 01:45:18;;;;;;;30.80;12.43;;;;;;;12.45;66.61;103226.94;5009815;28;20030;-48
2023/12/18 01:47:44;;;;;;;27.73;12.70;;;;;;;12.26;66.78;103237.44;5010407;28;20109;-46
2023/12/18 01:50:09;;;;;;;32.30;13.25;;;;;;;12.38;66.46;103242.34;5009683;28;20038;-48
2023/12/18 01:52:37;;;;;;;31.05;12.48;;;;;;;12.23;67.25;103242.56;5010178;28;20022;-47
2023/12/18 01:55:03;;;;;;;26.15;12.75;;;;;;;12.39;66.89;103250.22;5009983;28;20042;-46
2023/12/18 01:57:29;;;;;;;31.67;12.82;;;;;;;12.05;67.98;103255.69;5010275;28;20034;-52
2023/12/18 01:59:55;;;;;;;30.75;13.35;;;;;;;12.01;68.16;103253.78;5010538;28;20561;-45
2023/12/18 02:02:21;;;;;;;32.75;13.98;;;;;;;12.32;67.07;103258.63;5008895;28;20044;-50
2023/12/18 02:04:47;;;;;;;27.00;14.48;;;;;;;12.39;66.77;103255.47;5009840;28;20050;-46
2023/12/18 02:07:12;;;;;;;27.50;13.90;;;;;;;12.19;67.20;103246.75;5009544;28;20099;-45
2023/12/18 02:09:37;;;;;;;29.98;14.30;;;;;;;12.16;66.75;103244.00;5010439;28;20040;-46
2023/12/18 02:12:04;;;;;;;28.30;14.20;;;;;;;12.36;66.69;103241.38;5009559;28;20034;-46
2023/12/18 02:14:29;;;;;;;31.65;14.90;;;;;;;12.17;66.73;103234.44;5010713;28;20042;-51
2023/12/18 02:16:55;;;;;;;34.15;15.73;;;;;;;12.23;67.11;103239.94;5011083;28;20887;-46
2023/12/18 02:19:25;;;;;;;31.25;15.10;;;;;;;12.38;66.52;103227.50;5010392;28;20082;-45
2023/12/18 02:21:50;;;;;;;30.63;15.23;;;;;;;12.27;66.58;103231.38;5009318;28;20121;-49
2023/12/18 02:24:15;;;;;;;39.20;15.10;;;;;;;12.27;66.82;103235.72;5009379;28;20121;-48
2023/12/18 02:26:41;;;;;;;34.00;15.93;;;;;;;12.11;67.15;103235.06;5009797;28;20113;-46
2023/12/18 02:29:06;;;;;;;35.22;15.40;;;;;;;12.34;66.63;103238.69;5009466;28;20037;-49
2023/12/18 02:31:35;;;;;;;31.25;15.07;;;;;;;12.36;66.41;103233.53;5009593;28;20022;-46
2023/12/18 02:34:00;;;;;;;33.47;15.75;;;;;;;12.24;66.94;103226.03;5009420;28;20413;-50
2023/12/18 02:36:25;;;;;;;31.27;15.30;;;;;;;12.40;65.94;103227.59;5009953;28;20036;-45
2023/12/18 02:38:51;;;;;;;30.08;15.05;;;;;;;12.34;66.03;103222.09;5008678;28;20084;-46
2023/12/18 02:41:16;;;;;;;33.85;16.00;;;;;;;12.25;66.69;103224.31;5008903;28;20034;-45
2023/12/18 02:43:41;;;;;;;33.78;15.63;;;;;;;12.28;66.23;103220.09;5009844;28;20065;-47
2023/12/18 02:46:07;;;;;;;31.13;15.52;;;;;;;12.28;66.71;103220.09;5008972;28;20125;-49
2023/12/18 02:48:32;;;;;;;30.90;15.25;;;;;;;12.05;67.87;103212.97;5009776;28;20040;-49
2023/12/18 02:50:57;;;;;;;29.48;15.50;;;;;;;11.88;68.08;103213.94;5009291;28;20042;-45
2023/12/18 02:53:23;;;;;;;32.00;15.73;;;;;;;12.09;67.91;103218.41;5009623;28;20026;-49
2023/12/18 02:55:48;;;;;;;31.70;15.90;;;;;;;12.26;67.08;103213.91;5009755;28;20033;-46
2023/12/18 02:58:14;;;;;;;31.02;16.35;;;;;;;12.01;67.80;103217.19;5009060;28;20128;-48
2023/12/18 03:00:39;;;;;;;31.73;16.00;;;;;;;11.92;67.98;103216.75;5009714;28;20550;-48
2023/12/18 03:03:04;;;;;;;35.15;16.10;;;;;;;12.00;68.07;103220.63;5009033;28;20137;-46
2023/12/18 03:05:30;;;;;;;31.50;16.48;;;;;;;11.99;68.90;103216.22;5009615;28;20046;-44
2023/12/18 03:07:55;;;;;;;32.88;15.65;;;;;;;12.11;67.79;103219.38;5009768;28;20037;-45
2023/12/18 03:10:20;;;;;;;35.42;16.30;;;;;;;12.03;67.78;103218.13;5009718;28;20026;-45
2023/12/18 03:12:46;;;;;;;29.45;15.38;;;;;;;12.13;67.55;103222.06;5009715;28;20069;-50
2023/12/18 03:15:11;;;;;;;37.97;16.33;;;;;;;11.97;68.39;103223.09;5011927;28;20026;-45
2023/12/18 03:17:37;;;;;;;36.63;16.52;;;;;;;12.02;68.39;103212.81;5013307;28;20030;-44
2023/12/18 03:20:02;;;;;;;32.60;16.08;;;;;;;11.98;67.84;103217.03;5013206;28;20031;-48
2023/12/18 03:22:27;;;;;;;32.13;15.85;;;;;;;12.11;67.95;103203.69;5013485;28;20192;-44
2023/12/18 03:24:53;;;;;;;36.47;16.17;;;;;;;12.16;67.72;103201.25;5013873;28;20033;-45
2023/12/18 03:27:18;;;;;;;35.90;16.40;;;;;;;12.15;67.69;103202.09;5012894;28;20132;-45
2023/12/18 03:29:43;;;;;;;26.85;15.60;;;;;;;12.18;67.73;103202.22;5014251;28;20037;-47
2023/12/18 03:32:09;;;;;;;36.15;16.70;;;;;;;12.29;67.20;103205.31;5011098;28;20034;-46
2023/12/18 03:34:34;;;;;;;31.10;15.73;;;;;;;12.24;67.40;103204.22;5012701;28;20435;-47
2023/12/18 03:36:59;;;;;;;38.22;16.40;;;;;;;12.10;67.77;103196.66;5012692;28;20563;-47
2023/12/18 03:39:25;;;;;;;30.40;15.65;;;;;;;12.09;67.89;103192.25;5013403;28;20030;-49
2023/12/18 03:41:50;;;;;;;29.75;14.73;;;;;;;12.07;68.20;103193.94;5013079;28;20080;-46
2023/12/18 03:44:15;;;;;;;30.33;15.25;;;;;;;11.90;69.29;103183.50;5012159;28;20057;-45
2023/12/18 03:46:41;;;;;;;33.60;16.02;;;;;;;12.15;68.20;103186.38;5013402;28;20053;-43
2023/12/18 03:49:06;;;;;;;34.92;15.85;;;;;;;12.06;68.64;103188.63;5012680;28;20049;-47
2023/12/18 03:51:32;;;;;;;34.20;15.60;;;;;;;11.69;70.54;103199.09;5013092;28;20629;-49
2023/12/18 03:53:58;;;;;;;32.92;15.90;;;;;;;11.78;69.69;103196.94;5012842;28;20416;-46
2023/12/18 03:56:23;;;;;;;30.65;15.95;;;;;;;11.48;70.89;103195.50;5011638;28;20061;-51
2023/12/18 03:58:49;;;;;;;32.40;15.43;;;;;;;11.75;70.55;103187.25;5012994;28;20563;-46
2023/12/18 04:01:14;;;;;;;31.63;15.57;;;;;;;11.77;69.96;103184.72;5012897;28;20029;-47
2023/12/18 04:03:39;;;;;;;30.85;15.15;;;;;;;11.93;69.43;103178.44;5012919;28;20069;-43
2023/12/18 04:06:08;;;;;;;29.90;14.70;;;;;;;12.03;68.99;103189.38;5011758;28;20046;-44
2023/12/18 04:08:34;;;;;;;33.35;15.05;;;;;;;12.05;68.54;103185.09;5012748;28;20036;-45
2023/12/18 04:10:59;;;;;;;30.73;15.32;;;;;;;11.92;69.29;103179.25;5012145;28;20034;-45
2023/12/18 04:13:24;;;;;;;31.00;14.73;;;;;;;12.08;68.25;103177.38;5012268;28;20061;-47
2023/12/18 04:15:50;;;;;;;35.22;15.18;;;;;;;12.22;68.38;103170.16;5012121;28;20116;-46
2023/12/18 04:18:15;;;;;;;33.00;14.52;;;;;;;12.28;68.05;103167.78;5011825;28;20030;-47
2023/12/18 04:20:40;;;;;;;34.63;15.93;;;;;;;11.95;68.79;103175.09;5011875;28;20038;-49
2023/12/18 04:23:06;;;;;;;28.90;15.13;;;;;;;12.14;68.89;103168.91;5011204;28;20034;-45
2023/12/18 04:25:31;;;;;;;31.30;15.57;;;;;;;11.86;69.35;103176.38;5011560;28;20041;-45
2023/12/18 04:27:56;;;;;;;36.72;15.43;;;;;;;11.98;69.71;103172.59;5012239;28;20034;-47
2023/12/18 04:30:22;;;;;;;31.15;14.82;;;;;;;11.84;69.80;103173.69;5011456;28;20497;-45
2023/12/18 04:32:47;;;;;;;31.52;14.55;;;;;;;11.96;69.82;103175.94;5011385;28;20068;-48
2023/12/18 04:35:12;;;;;;;28.52;14.35;;;;;;;12.11;69.14;103172.31;5011158;28;20489;-46
2023/12/18 04:37:38;;;;;;;32.38;14.48;;;;;;;11.93;70.03;103188.91;5011764;28;20618;-47
2023/12/18 04:40:03;;;;;;;33.22;14.25;;;;;;;12.09;69.63;103187.03;5011172;28;20598;-48
2023/12/18 04:42:29;;;;;;;30.30;14.18;;;;;;;12.19;68.90;103196.19;5011131;28;20483;-45
2023/12/18 04:44:55;;;;;;;41.55;14.55;;;;;;;11.86;70.73;103192.97;5011389;28;20030;-48
2023/12/18 04:47:20;;;;;;;32.03;13.82;;;;;;;12.28;69.37;103187.81;5011052;28;20083;-46
2023/12/18 04:49:45;;;;;;;30.52;13.45;;;;;;;12.26;68.62;103194.72;5011565;28;20465;-45
2023/12/18 04:52:11;;;;;;;28.17;13.05;;;;;;;12.41;68.86;103187.53;5010616;28;20397;-46
2023/12/18 04:54:36;;;;;;;33.38;13.63;;;;;;;12.06;69.73;103183.38;5011433;28;20034;-48
2023/12/18 04:57:01;;;;;;;31.73;13.95;;;;;;;12.23;68.94;103176.28;5010746;28;20041;-46
2023/12/18 04:59:27;;;;;;;30.98;13.35;;;;;;;12.31;69.01;103174.88;5011574;28;20120;-46
2023/12/18 05:01:52;;;;;;;26.30;13.65;;;;;;;12.39;68.70;103170.84;5009027;28;20021;-50
2023/12/18 05:04:17;;;;;;;30.48;13.52;;;;;;;12.33;69.06;103171.50;5010868;28;20123;-47
2023/12/18 05:06:42;;;;;;;38.85;14.35;;;;;;;12.34;68.60;103168.06;5011380;28;20041;-48
2023/12/18 05:09:08;;;;;;;31.67;13.90;;;;;;;12.34;68.32;103160.22;5011074;28;20057;-46
2023/12/18 05:11:33;;;;;;;32.45;14.27;;;;;;;12.44;68.47;103164.13;5010997;28;20026;-45
2023/12/18 05:13:58;;;;;;;30.42;14.98;;;;;;;12.43;68.47;103162.34;5011028;28;20069;-48
2023/12/18 05:16:24;;;;;;;29.35;14.15;;;;;;;12.52;68.05;103165.31;5010998;28;20087;-45
2023/12/18 05:18:49;;;;;;;33.83;14.77;;;;;;;12.35;68.11;103167.22;5011110;28;20041;-46
2023/12/18 05:21:15;;;;;;;31.30;14.38;;;;;;;12.51;68.06;103174.88;5010308;28;20604;-45
2023/12/18 05:23:40;;;;;;;32.65;15.07;;;;;;;12.23;68.69;103173.66;5011081;28;20077;-45
2023/12/18 05:26:06;;;;;;;35.63;15.05;;;;;;;12.26;69.04;103173.81;5010403;28;20511;-46
2023/12/18 05:28:31;;;;;;;29.90;14.57;;;;;;;12.48;68.04;103168.66;5010828;28;20073;-45
2023/12/18 05:30:57;;;;;;;33.63;14.77;;;;;;;12.39;68.26;103176.09;5011063;28;20037;-45
2023/12/18 05:33:22;;;;;;;30.70;14.80;;;;;;;12.26;69.02;103176.41;5009751;28;20500;-46
2023/12/18 05:35:47;;;;;;;31.38;15.20;;;;;;;12.02;69.71;103174.50;5010815;28;20038;-46
2023/12/18 05:38:13;;;;;;;31.27;14.35;;;;;;;12.35;68.89;103180.31;5009430;28;20041;-44
2023/12/18 05:40:38;;;;;;;30.98;15.50;;;;;;;12.37;68.29;103167.31;5009280;28;20048;-46
2023/12/18 05:43:04;;;;;;;34.80;15.80;;;;;;;11.88;69.82;103182.56;5009739;28;20125;-46
2023/12/18 05:45:31;;;;;;;32.15;15.25;;;;;;;12.24;69.36;103181.56;5010539;28;20053;-45
2023/12/18 05:47:57;;;;;;;31.38;15.00;;;;;;;12.36;68.66;103189.06;5010581;28;20517;-47
2023/12/18 05:50:22;;;;;;;35.17;15.93;;;;;;;11.92;69.77;103182.78;5022022;28;20044;-49
2023/12/18 05:52:47;;;;;;;35.30;16.08;;;;;;;12.14;69.53;103176.75;5029838;28;20034;-46
2023/12/18 05:55:13;;;;;;;35.20;15.80;;;;;;;12.09;69.64;103175.66;5029922;28;20558;-52
2023/12/18 05:57:38;;;;;;;38.67;16.70;;;;;;;11.61;71.51;103176.94;5030359;28;20124;-45
2023/12/18 06:00:05;;;;;;;35.35;16.73;;;;;;;12.08;70.24;103181.72;5029892;28;20040;-47
2023/12/18 06:02:31;;;;;;;31.20;15.38;;;;;;;12.22;68.92;103180.59;5029932;28;20519;-48
2023/12/18 06:04:56;;;;;;;31.60;15.70;;;;;;;12.37;68.61;103178.66;5030720;28;20040;-46
2023/12/18 06:07:21;;;;;;;35.58;16.48;;;;;;;11.97;70.05;103188.19;5029384;28;20039;-47
2023/12/18 06:09:46;;;;;;;34.85;15.85;;;;;;;12.11;69.42;103187.09;5030378;28;20029;-45
2023/12/18 06:12:12;;;;;;;36.35;17.30;;;;;;;12.31;68.85;103185.34;5029396;28;20550;-44
2023/12/18 06:14:37;;;;;;;34.13;16.90;;;;;;;12.25;68.84;103191.22;5029855;28;20029;-44
2023/12/18 06:17:03;;;;;;;39.47;16.90;;;;;;;12.20;68.68;103185.75;5029309;28;20029;-43
2023/12/18 06:19:29;;;;;;;31.40;16.63;;;;;;;12.22;68.77;103188.44;5029919;28;20034;-45
2023/12/18 06:21:54;;;;;;;33.25;16.80;;;;;;;11.90;69.65;103181.81;5029401;28;20061;-45
2023/12/18 06:24:19;;;;;;;33.10;16.95;;;;;;;12.36;68.59;103179.50;5029409;28;20043;-49
2023/12/18 06:26:45;;;;;;;39.55;17.65;;;;;;;11.99;69.31;103176.09;5029727;28;20037;-45
2023/12/18 06:29:10;;;;;;;38.10;16.98;;;;;;;12.18;69.13;103176.09;5027699;28;20033;-46
2023/12/18 06:31:35;;;;;;;34.83;17.15;;;;;;;12.25;68.87;103169.41;5029084;28;20400;-45
2023/12/18 06:34:01;;;;;;;37.70;16.90;;;;;;;12.40;68.11;103172.66;5029411;28;20037;-45
2023/12/18 06:36:26;;;;;;;36.88;16.88;;;;;;;12.30;68.55;103170.47;5029650;28;20125;-46
2023/12/18 06:38:52;;;;;;;35.38;16.83;;;;;;;12.14;68.91;103163.69;5029832;28;20029;-46
2023/12/18 06:41:17;;;;;;;33.45;17.10;;;;;;;12.27;68.40;103171.22;5028968;28;20045;-45
2023/12/18 06:43:42;;;;;;;34.75;17.35;;;;;;;12.18;68.69;103165.63;5029936;28;20040;-48
2023/12/18 06:46:09;;;;;;;35.38;16.83;;;;;;;11.80;69.76;103174.38;5029264;28;20122;-44
2023/12/18 06:48:35;;;;;;;40.03;17.45;;;;;;;12.03;69.75;103176.28;5029938;28;20037;-46
2023/12/18 06:51:00;;;;;;;36.20;17.65;;;;;;;12.13;68.82;103175.00;5033557;28;20175;-44
2023/12/18 06:53:25;;;;;;;36.28;17.35;;;;;;;11.82;69.51;103166.63;5034135;28;20112;-43
2023/12/18 06:55:51;;;;;;;32.35;17.05;;;;;;;12.31;68.44;103167.94;5035171;28;20040;-47
2023/12/18 06:58:16;;;;;;;39.03;17.20;;;;;;;12.29;67.93;103164.34;5035128;28;20559;-44
2023/12/18 07:00:43;;;;;;;35.30;16.80;;;;;;;12.31;68.03;103170.56;5035196;28;20040;-45
2023/12/18 07:03:08;;;;;;;37.35;17.70;;;;;;;12.09;68.29;103167.81;5034549;28;20068;-44
2023/12/18 07:05:34;;;;;;;37.08;17.60;;;;;;;12.07;68.26;103165.16;5033668;28;20045;-46
2023/12/18 07:07:59;;;;;;;33.53;17.33;;;;;;;11.97;68.81;103164.66;5033715;28;20033;-45
2023/12/18 07:10:24;;;;;;;35.40;17.63;;;;;;;12.03;69.13;103163.22;5033745;28;20602;-45
2023/12/18 07:12:50;;;;;;;41.72;17.67;;;;;;;11.98;69.65;103154.28;5032787;28;20555;-45
2023/12/18 07:15:15;;;;;;;37.20;17.20;;;;;;;11.76;70.22;103162.03;5032594;28;20074;-44
2023/12/18 07:17:41;;;;;;;37.88;17.27;;;;;;;11.92;70.15;103159.25;5033290;28;20072;-44
2023/12/18 07:20:08;;;;;;;29.67;16.80;;;;;;;12.09;69.16;103159.97;5032885;28;20037;-46
2023/12/18 07:22:34;;;;;;;35.60;17.10;;;;;;;12.05;68.75;103165.91;5032354;28;20087;-48
2023/12/18 07:24:59;;;;;;;34.40;17.55;;;;;;;11.53;71.24;103154.78;5032298;28;20037;-47
2023/12/18 07:27:25;;;;;;;39.20;17.67;;;;;;;11.97;69.54;103168.19;5032248;28;20539;-45
2023/12/18 07:29:50;;;;;;;34.90;17.25;;;;;;;11.92;70.28;103164.47;5032676;28;20373;-47
2023/12/18 07:32:16;;;;;;;36.65;17.48;;;;;;;12.06;69.49;103168.59;5031549;28;20030;-47
2023/12/18 07:34:42;;;;;;;32.60;16.92;;;;;;;12.29;68.89;103156.50;5032661;28;20033;-45
2023/12/18 07:37:07;;;;;;;32.88;16.02;;;;;;;12.52;67.96;103160.97;5032025;28;20132;-47
2023/12/18 07:39:32;;;;;;;35.38;17.30;;;;;;;12.01;69.53;103167.50;5032805;28;20488;-44
2023/12/18 07:41:57;;;;;;;33.00;16.52;;;;;;;12.10;69.72;103159.16;5031689;28;20046;-44
2023/12/18 07:44:23;;;;;;;35.88;16.17;;;;;;;12.28;69.07;103165.19;5032252;28;20116;-49
2023/12/18 07:46:50;;;;;;;32.85;16.65;;;;;;;12.01;69.88;103164.00;5032498;28;20045;-44
2023/12/18 07:49:16;;;;;;;34.85;17.08;;;;;;;11.93;70.45;103162.75;5031811;28;20432;-45
2023/12/18 07:51:41;;;;;;;32.75;16.50;;;;;;;12.21;69.53;103163.13;5032074;28;20037;-46
2023/12/18 07:54:07;;;;;;;37.60;17.10;;;;;;;11.69;69.88;103155.59;5031850;28;20044;-45
2023/12/18 07:56:32;;;;;;;32.83;17.08;;;;;;;11.97;70.02;103162.94;5032393;28;20033;-44
2023/12/18 07:58:57;;;;;;;31.67;16.58;;;;;;;12.00;69.60;103170.94;5031735;28;20036;-51
2023/12/18 08:01:23;;;;;;;35.05;17.42;;;;;;;12.18;69.42;103163.91;5030345;28;20485;-45
2023/12/18 08:03:48;;;;;;;32.83;16.67;;;;;;;12.25;69.71;103174.63;5031692;28;20121;-46
2023/12/18 08:06:13;;;;;;;35.92;17.38;;;;;;;11.83;70.46;103182.38;5031588;28;20074;-45
2023/12/18 08:08:39;;;;;;;33.85;16.52;;;;;;;12.39;68.74;103169.13;5031858;28;20443;-43
2023/12/18 08:11:04;;;;;;;36.17;17.15;;;;;;;12.53;68.20;103172.34;5031507;28;20033;-46
2023/12/18 08:13:29;;;;;;;37.45;16.77;;;;;;;12.10;69.38;103170.50;5032042;28;20029;-49
2023/12/18 08:15:55;;;;;;;34.20;16.10;;;;;;;12.23;68.81;103171.03;5031621;28;20037;-47
2023/12/18 08:18:20;;;;;;;31.38;16.20;;;;;;;11.87;70.58;103176.44;5031280;28;20030;-46
2023/12/18 08:20:45;;;;;;;31.33;15.75;;;;;;;12.28;69.20;103173.03;5031618;28;20034;-44
2023/12/18 08:23:10;;;;;;;35.60;16.58;;;;;;;11.91;69.64;103164.41;5031130;28;20041;-46
2023/12/18 08:25:36;;;;;;;32.78;16.05;;;;;;;11.90;70.73;103163.50;5031693;28;20053;-44
2023/12/18 08:28:01;;;;;;;32.80;16.40;;;;;;;11.71;71.26;103164.38;5031005;28;20128;-45
2023/12/18 08:30:27;;;;;;;36.67;15.98;;;;;;;11.79;71.24;103156.91;5031842;28;20037;-43
2023/12/18 08:32:52;;;;;;;30.75;15.77;;;;;;;11.57;71.23;103175.94;5031506;28;20758;-47
2023/12/18 08:35:17;;;;;;;29.30;15.43;;;;;;;12.33;69.23;103163.66;5031024;28;20112;-43
2023/12/18 08:37:43;;;;;;;30.65;16.08;;;;;;;11.98;70.37;103162.13;5031387;28;20041;-45
2023/12/18 08:40:09;;;;;;;29.70;16.25;;;;;;;12.32;69.24;103161.00;5031267;28;20033;-46
2023/12/18 08:42:34;;;;;;;31.27;16.88;;;;;;;12.20;69.25;103161.31;5029776;28;20045;-44
2023/12/18 08:44:59;;;;;;;33.25;17.13;;;;;;;12.20;69.62;103157.00;5030687;28;20075;-45
2023/12/18 08:47:25;;;;;;;33.25;17.13;;;;;;;12.24;69.25;103152.81;5031388;28;20037;-45
2023/12/18 08:49:50;;;;;;;34.63;17.17;;;;;;;12.59;68.14;103147.31;5031216;28;20033;-48
2023/12/18 08:52:16;;;;;;;38.45;18.23;;;;;;;11.87;70.63;103144.19;5030537;28;20597;-49
2023/12/18 08:54:41;;;;;;;33.65;17.15;;;;;;;12.39;69.02;103142.97;5031148;28;20517;-44
2023/12/18 08:57:06;;;;;;;34.47;18.17;;;;;;;12.21;69.32;103134.34;5030486;28;20055;-46
2023/12/18 08:59:31;;;;;;;32.25;18.08;;;;;;;12.15;69.46;103135.00;5031200;28;20033;-44
2023/12/18 09:01:57;;;;;;;32.08;17.95;;;;;;;12.58;68.30;103131.56;5030900;28;20049;-44
2023/12/18 09:04:22;;;;;;;32.17;16.58;;;;;;;12.02;69.40;103143.13;5030277;28;20041;-50
2023/12/18 09:06:47;;;;;;;33.75;17.55;;;;;;;12.02;69.06;103140.50;5030930;28;20056;-44
2023/12/18 09:09:13;;;;;;;36.85;17.70;;;;;;;12.11;69.64;103142.66;5030683;28;20065;-46
2023/12/18 09:11:38;;;;;;;32.15;17.42;;;;;;;12.07;69.66;103138.13;5030347;28;20116;-45
2023/12/18 09:14:03;;;;;;;35.38;17.63;;;;;;;12.11;68.76;103138.31;5030339;28;20120;-45
2023/12/18 09:16:29;;;;;;;32.65;16.42;;;;;;;12.47;68.55;103141.59;5030734;28;20072;-48
2023/12/18 09:18:54;;;;;;;33.30;17.50;;;;;;;12.49;67.61;103139.94;5030706;28;20037;-46
2023/12/18 09:21:20;;;;;;;36.45;16.92;;;;;;;12.08;68.40;103145.13;5030076;28;20036;-45
2023/12/18 09:23:45;;;;;;;32.95;17.25;;;;;;;12.14;68.91;103141.03;5030510;28;20044;-48
2023/12/18 09:26:13;;;;;;;32.75;17.05;;;;;;;12.51;67.97;103138.25;5031119;28;20057;-48
2023/12/18 09:28:39;;;;;;;33.28;17.13;;;;;;;12.49;67.71;103136.44;5030754;28;20037;-46
2023/12/18 09:31:07;;;;;;;32.15;17.38;;;;;;;12.71;67.15;103136.47;5029764;28;20037;-46
2023/12/18 09:33:35;;;;;;;31.67;16.17;;;;;;;12.85;66.38;103132.69;5030438;28;20037;-45
2023/12/18 09:36:01;;;;;;;29.40;16.63;;;;;;;13.00;65.77;103128.03;5029910;28;20041;-47
2023/12/18 09:38:26;;;;;;;30.50;16.40;;;;;;;12.97;65.56;103116.56;5030419;28;20399;-46
2023/12/18 09:40:52;;;;;;;33.33;16.73;;;;;;;12.67;66.92;103120.59;5030202;28;20041;-48
2023/12/18 09:43:18;;;;;;;36.35;16.98;;;;;;;12.08;69.18;103135.56;5030099;28;20090;-45
2023/12/18 09:45:46;;;;;;;29.70;16.10;;;;;;;11.72;69.55;103140.03;5030657;28;20029;-46
2023/12/18 09:48:11;;;;;;;37.10;17.10;;;;;;;12.26;69.00;103135.44;5030013;28;20045;-48
2023/12/18 09:50:37;;;;;;;32.80;16.17;;;;;;;12.95;66.48;103116.50;5029063;28;20035;-46
2023/12/18 09:53:08;;;;;;;27.15;15.30;;;;;;;12.85;66.43;103118.69;5029615;28;20092;-47
2023/12/18 09:55:34;;;;;;;30.15;15.80;;;;;;;12.80;66.54;103108.06;5030232;28;20053;-46
2023/12/18 09:58:00;;;;;;;33.92;16.35;;;;;;;12.51;67.42;103112.09;5029688;28;20060;-46
2023/12/18 10:00:27;;;;;;;31.20;16.60;;;;;;;12.51;66.99;103105.97;5030810;28;20488;-47
2023/12/18 10:02:57;;;;;;;31.15;15.88;;;;;;;12.76;67.01;103103.50;5029704;28;20033;-51
2023/12/18 10:05:23;;;;;;;28.17;15.65;;;;;;;12.43;68.38;103110.00;5029962;28;20041;-50
2023/12/18 10:07:48;;;;;;;31.77;15.88;;;;;;;12.65;67.70;103111.75;5030234;28;20032;-44
2023/12/18 10:10:15;;;;;;;34.72;16.23;;;;;;;12.78;66.83;103095.72;5029905;28;20038;-44
2023/12/18 10:12:40;;;;;;;33.00;16.35;;;;;;;12.64;67.71;103102.13;5029738;28;20025;-44
2023/12/18 10:15:11;;;;;;;35.53;15.95;;;;;;;13.04;66.22;103102.00;5029934;28;20037;-45
2023/12/18 10:17:40;;;;;;;31.30;15.95;;;;;;;13.09;65.95;103093.47;5030933;28;20025;-44
2023/12/18 10:20:07;;;;;;;29.85;15.57;;;;;;;13.10;65.45;103081.28;5029578;28;20452;-48
2023/12/18 10:22:32;;;;;;;35.45;15.95;;;;;;;13.10;65.72;103082.16;5033432;28;20120;-47
2023/12/18 10:25:04;;;;;;;31.40;14.60;;;;;;;13.25;65.19;103081.88;5032699;28;20115;-44
2023/12/18 10:27:33;;;;;;;29.58;15.50;;;;;;;12.81;66.39;103080.13;5030078;28;20029;-50
2023/12/18 10:30:00;;;;;;;32.08;14.95;;;;;;;13.02;65.42;103073.13;5029562;28;20042;-46
2023/12/18 10:32:29;;;;;;;36.10;16.13;;;;;;;13.12;65.33;103079.59;5029304;28;20399;-46
2023/12/18 10:34:55;;;;;;;30.73;15.38;;;;;;;13.08;65.59;103077.69;5029927;28;20049;-47
2023/12/18 10:37:22;;;;;;;31.30;15.82;;;;;;;12.90;65.98;103070.91;5028831;28;20029;-46
2023/12/18 10:39:51;;;;;;;28.45;15.43;;;;;;;13.08;66.05;103070.72;5029666;28;20566;-50
2023/12/18 10:42:35;;;;;;;32.65;15.93;;;;;;;13.15;65.69;103059.69;5029022;28;20527;-47
2023/12/18 10:45:02;;;;;;;29.67;15.80;;;;;;;13.19;64.80;103060.69;5029517;28;20112;-46
2023/12/18 10:47:30;;;;;;;34.38;16.23;;;;;;;12.68;66.80;103065.69;5029623;28;20385;-46
2023/12/18 10:49:59;;;;;;;31.17;16.10;;;;;;;13.17;65.76;103067.63;5029459;28;20034;-45
2023/12/18 10:52:27;;;;;;;31.92;15.93;;;;;;;13.15;65.65;103057.06;5028933;28;20530;-48
2023/12/18 10:54:53;;;;;;;34.83;16.27;;;;;;;13.30;65.29;103059.34;5029846;28;20033;-48
2023/12/18 10:57:20;;;;;;;32.75;16.40;;;;;;;13.25;65.44;103058.28;5027529;28;20522;-46
2023/12/18 10:59:49;;;;;;;35.95;16.70;;;;;;;12.76;66.77;103045.94;5029545;28;20041;-47
2023/12/18 11:02:15;;;;;;;37.53;16.83;;;;;;;13.10;66.62;103040.25;5028652;28;20037;-45